Terminal Aerodrome Forecast
Issued by NWS

Home | Current Version | Previous Version | Text Only | Print | Product List | Glossary Off
Versions: 1 2 3 4 5 6 7 8 9 10 11 12 13 14 15

000
FTUS43 KIWX 171531 AAB
TAFSBN
TAF AMD
KSBN 171531Z 1716/1812 VRB03KT P6SM BKN010
     FM171700 07005KT P6SM FEW250
     FM172100 35006KT P6SM SCT250=

USA.gov is the U.S. government's official web portal to all federal, state and local government web resources and services.